LFBI 301030Z AUTO 09011KT 050V120 CAVOK 23/07 Q1017 NOSIG

ElémentsDécodage
LFBI Station météo située sur l'aérodrome de POITIERS Biard
301030Z émis le 30 du mois à 10h30 UTC
AUTO Bulletin édité par un automate
09011KT vent du 090°, 11 noeuds
050V120 vent de direction variable entre 050° et 120°
CAVOK Ceiling And Visibility OK
- Visibilité de 10 Km ou plus
- Pas de nuage au-dessous de 1500m ou au-dessous de l'altitude minimale du secteur la plus élevée (si>1500m) et absence de CB
- pas de temps présent significatif
23/07 température 23°C, point de rosée 07°C
 soit une humidité relative de 36%
Q1017 la pression au niveau de la mer (QNH) est de 1017 hPa
NOSIG Pas de changement significatif prévu au cours des deux heures suivant l'heure de l'observation